sensor_id;sensor_type;location;lat;lon;timestamp;pressure;altitude;pressure_sealevel;temperature;humidity
17521;BME280;8878;-33.370;-70.552;2023-06-10T00:00:19;92620.78;;;14.59;89.87
17521;BME280;8878;-33.370;-70.552;2023-06-10T00:02:49;92629.94;;;14.48;90.34
17521;BME280;8878;-33.370;-70.552;2023-06-10T00:05:19;92628.81;;;14.54;90.21
17521;BME280;8878;-33.370;-70.552;2023-06-10T00:07:48;92640.53;;;14.48;89.98
17521;BME280;8878;-33.370;-70.552;2023-06-10T00:10:17;92638.41;;;14.01;91.83
17521;BME280;8878;-33.370;-70.552;2023-06-10T00:12:47;92639.38;;;14.20;91.40
17521;BME280;8878;-33.370;-70.552;2023-06-10T00:15:18;92648.53;;;14.43;90.53
17521;BME280;8878;-33.370;-70.552;2023-06-10T00:17:48;92642.63;;;14.12;92.10
17521;BME280;8878;-33.370;-70.552;2023-06-10T00:20:19;92645.16;;;13.83;93.84
17521;BME280;8878;-33.370;-70.552;2023-06-10T00:22:50;92656.94;;;14.11;93.02
17521;BME280;8878;-33.370;-70.552;2023-06-10T00:25:20;92646.16;;;13.97;93.85
17521;BME280;8878;-33.370;-70.552;2023-06-10T00:27:49;92636.78;;;13.61;96.26
17521;BME280;8878;-33.370;-70.552;2023-06-10T00:30:21;92640.16;;;13.71;96.67
17521;BME280;8878;-33.370;-70.552;2023-06-10T00:32:50;92632.06;;;14.02;95.36
17521;BME280;8878;-33.370;-70.552;2023-06-10T00:35:19;92621.88;;;14.19;93.59
17521;BME280;8878;-33.370;-70.552;2023-06-10T00:37:49;92609.75;;;13.54;95.21
17521;BME280;8878;-33.370;-70.552;2023-06-10T00:40:18;92606.72;;;13.21;96.67
17521;BME280;8878;-33.370;-70.552;2023-06-10T00:42:48;92609.59;;;13.35;97.26
17521;BME280;8878;-33.370;-70.552;2023-06-10T00:45:19;92636.66;;;13.07;98.33
17521;BME280;8878;-33.370;-70.552;2023-06-10T00:47:48;92661.53;;;13.31;98.21
17521;BME280;8878;-33.370;-70.552;2023-06-10T00:50:18;92658.38;;;13.09;98.29
17521;BME280;8878;-33.370;-70.552;2023-06-10T00:52:47;92644.97;;;13.69;96.58
17521;BME280;8878;-33.370;-70.552;2023-06-10T00:55:18;92647.09;;;13.67;95.08
17521;BME280;8878;-33.370;-70.552;2023-06-10T00:57:48;92635.50;;;13.48;93.61
17521;BME280;8878;-33.370;-70.552;2023-06-10T01:00:20;92643.00;;;13.11;95.94
17521;BME280;8878;-33.370;-70.552;2023-06-10T01:02:50;92651.75;;;13.26;94.45
17521;BME280;8878;-33.370;-70.552;2023-06-10T01:05:20;92644.31;;;13.28;93.29
17521;BME280;8878;-33.370;-70.552;2023-06-10T01:07:56;92653.34;;;13.07;94.44
17521;BME280;8878;-33.370;-70.552;2023-06-10T01:10:33;92647.03;;;12.63;95.96
17521;BME280;8878;-33.370;-70.552;2023-06-10T01:13:06;92622.09;;;13.04;95.30
17521;BME280;8878;-33.370;-70.552;2023-06-10T01:15:40;92644.38;;;12.68;95.59
17521;BME280;8878;-33.370;-70.552;2023-06-10T01:18:10;92656.03;;;12.82;96.59
17521;BME280;8878;-33.370;-70.552;2023-06-10T01:20:42;92647.53;;;12.90;95.11
17521;BME280;8878;-33.370;-70.552;2023-06-10T01:23:15;92652.81;;;13.05;94.81
17521;BME280;8878;-33.370;-70.552;2023-06-10T01:25:47;92654.38;;;13.31;92.83
17521;BME280;8878;-33.370;-70.552;2023-06-10T01:28:22;92656.19;;;13.46;92.08
17521;BME280;8878;-33.370;-70.552;2023-06-10T01:31:02;92647.56;;;12.75;93.99
17521;BME280;8878;-33.370;-70.552;2023-06-10T01:33:37;92637.78;;;12.45;96.92
17521;BME280;8878;-33.370;-70.552;2023-06-10T01:36:08;92624.53;;;12.65;96.25
17521;BME280;8878;-33.370;-70.552;2023-06-10T01:38:42;92631.97;;;12.63;97.33
17521;BME280;8878;-33.370;-70.552;2023-06-10T01:41:13;92664.78;;;12.82;96.31
17521;BME280;8878;-33.370;-70.552;2023-06-10T01:43:44;92690.72;;;12.50;97.45
17521;BME280;8878;-33.370;-70.552;2023-06-10T01:46:13;92686.72;;;12.37;97.90
17521;BME280;8878;-33.370;-70.552;2023-06-10T01:48:46;92667.44;;;12.47;97.00
17521;BME280;8878;-33.370;-70.552;2023-06-10T01:51:16;92645.94;;;11.98;98.55
17521;BME280;8878;-33.370;-70.552;2023-06-10T01:53:47;92670.84;;;12.52;97.74
17521;BME280;8878;-33.370;-70.552;2023-06-10T01:56:17;92678.22;;;12.00;100.00
17521;BME280;8878;-33.370;-70.552;2023-06-10T01:58:46;92676.66;;;12.24;99.62
17521;BME280;8878;-33.370;-70.552;2023-06-10T02:01:16;92672.97;;;12.66;96.71
17521;BME280;8878;-33.370;-70.552;2023-06-10T02:03:45;92669.28;;;12.46;96.46
17521;BME280;8878;-33.370;-70.552;2023-06-10T02:06:15;92682.75;;;12.40;97.26
17521;BME280;8878;-33.370;-70.552;2023-06-10T02:08:44;92682.00;;;12.49;96.27
17521;BME280;8878;-33.370;-70.552;2023-06-10T02:11:15;92679.81;;;12.16;97.21
17521;BME280;8878;-33.370;-70.552;2023-06-10T02:13:45;92686.75;;;12.47;96.50
17521;BME280;8878;-33.370;-70.552;2023-06-10T02:16:14;92681.41;;;12.22;96.64
17521;BME280;8878;-33.370;-70.552;2023-06-10T02:18:44;92686.41;;;12.03;98.28
17521;BME280;8878;-33.370;-70.552;2023-06-10T02:21:13;92707.19;;;11.74;99.58
17521;BME280;8878;-33.370;-70.552;2023-06-10T02:23:43;92701.72;;;11.96;97.81
17521;BME280;8878;-33.370;-70.552;2023-06-10T02:26:14;92704.06;;;11.88;98.44
17521;BME280;8878;-33.370;-70.552;2023-06-10T02:28:44;92696.22;;;12.13;97.20
17521;BME280;8878;-33.370;-70.552;2023-06-10T02:31:14;92687.69;;;11.91;97.89
17521;BME280;8878;-33.370;-70.552;2023-06-10T02:33:45;92681.19;;;12.34;96.23
17521;BME280;8878;-33.370;-70.552;2023-06-10T02:36:14;92683.25;;;12.06;95.67
17521;BME280;8878;-33.370;-70.552;2023-06-10T02:38:45;92677.97;;;12.11;95.10
17521;BME280;8878;-33.370;-70.552;2023-06-10T02:41:16;92697.84;;;12.34;94.31
17521;BME280;8878;-33.370;-70.552;2023-06-10T02:43:45;92711.63;;;12.57;93.56
17521;BME280;8878;-33.370;-70.552;2023-06-10T02:46:15;92706.06;;;12.58;91.68
17521;BME280;8878;-33.370;-70.552;2023-06-10T02:48:45;92693.59;;;12.38;93.48
17521;BME280;8878;-33.370;-70.552;2023-06-10T02:51:16;92703.66;;;12.51;92.01
17521;BME280;8878;-33.370;-70.552;2023-06-10T02:53:45;92706.28;;;12.26;92.96
17521;BME280;8878;-33.370;-70.552;2023-06-10T02:56:16;92711.31;;;12.23;93.05
17521;BME280;8878;-33.370;-70.552;2023-06-10T02:58:47;92704.72;;;12.45;91.95
17521;BME280;8878;-33.370;-70.552;2023-06-10T03:01:18;92706.81;;;12.23;92.93
17521;BME280;8878;-33.370;-70.552;2023-06-10T03:03:48;92723.00;;;12.47;92.21
17521;BME280;8878;-33.370;-70.552;2023-06-10T03:06:17;92738.00;;;12.06;93.27
17521;BME280;8878;-33.370;-70.552;2023-06-10T03:08:47;92732.22;;;12.29;92.56
17521;BME280;8878;-33.370;-70.552;2023-06-10T03:11:19;92722.47;;;12.45;92.53
17521;BME280;8878;-33.370;-70.552;2023-06-10T03:13:48;92739.09;;;12.25;93.03
17521;BME280;8878;-33.370;-70.552;2023-06-10T03:16:18;92735.16;;;12.38;92.00
17521;BME280;8878;-33.370;-70.552;2023-06-10T03:18:48;92736.78;;;12.49;91.78
17521;BME280;8878;-33.370;-70.552;2023-06-10T03:21:18;92740.72;;;12.51;91.37
17521;BME280;8878;-33.370;-70.552;2023-06-10T03:23:47;92739.19;;;12.71;90.19
17521;BME280;8878;-33.370;-70.552;2023-06-10T03:26:18;92745.50;;;12.65;90.12
17521;BME280;8878;-33.370;-70.552;2023-06-10T03:28:48;92730.69;;;12.79;88.63
17521;BME280;8878;-33.370;-70.552;2023-06-10T03:31:17;92740.22;;;12.75;89.69
17521;BME280;8878;-33.370;-70.552;2023-06-10T03:33:47;92736.00;;;13.19;88.80
17521;BME280;8878;-33.370;-70.552;2023-06-10T03:36:16;92736.00;;;13.19;87.60
17521;BME280;8878;-33.370;-70.552;2023-06-10T03:38:46;92738.66;;;13.35;88.17
17521;BME280;8878;-33.370;-70.552;2023-06-10T03:41:19;92724.56;;;13.49;87.32
17521;BME280;8878;-33.370;-70.552;2023-06-10T03:43:48;92718.97;;;13.56;86.77
17521;BME280;8878;-33.370;-70.552;2023-06-10T03:46:18;92713.69;;;13.56;86.31
17521;BME280;8878;-33.370;-70.552;2023-06-10T03:48:47;92718.47;;;13.44;86.27
17521;BME280;8878;-33.370;-70.552;2023-06-10T03:51:17;92724.78;;;13.63;85.42
17521;BME280;8878;-33.370;-70.552;2023-06-10T03:53:46;92713.72;;;13.41;85.98
17521;BME280;8878;-33.370;-70.552;2023-06-10T03:56:16;92697.00;;;13.45;86.02
17521;BME280;8878;-33.370;-70.552;2023-06-10T03:58:47;92681.94;;;13.30;86.47
17521;BME280;8878;-33.370;-70.552;2023-06-10T04:01:16;92677.19;;;13.17;87.78
17521;BME280;8878;-33.370;-70.552;2023-06-10T04:03:47;92669.25;;;13.07;88.40
17521;BME280;8878;-33.370;-70.552;2023-06-10T04:06:18;92673.47;;;13.08;88.23
17521;BME280;8878;-33.370;-70.552;2023-06-10T04:08:49;92665.00;;;13.06;87.69
17521;BME280;8878;-33.370;-70.552;2023-06-10T04:11:19;92674.81;;;13.21;86.84
17521;BME280;8878;-33.370;-70.552;2023-06-10T04:13:51;92671.31;;;13.30;85.98
17521;BME280;8878;-33.370;-70.552;2023-06-10T04:16:21;92671.03;;;13.37;85.65
17521;BME280;8878;-33.370;-70.552;2023-06-10T04:18:50;92690.31;;;13.63;84.96
17521;BME280;8878;-33.370;-70.552;2023-06-10T04:21:20;92689.91;;;13.00;84.83
17521;BME280;8878;-33.370;-70.552;2023-06-10T04:23:49;92684.09;;;13.13;86.89
17521;BME280;8878;-33.370;-70.552;2023-06-10T04:26:18;92696.53;;;13.03;88.83
17521;BME280;8878;-33.370;-70.552;2023-06-10T04:28:50;92694.44;;;13.00;88.31
17521;BME280;8878;-33.370;-70.552;2023-06-10T04:31:20;92688.06;;;12.65;89.49
17521;BME280;8878;-33.370;-70.552;2023-06-10T04:33:49;92695.75;;;12.92;89.91
17521;BME280;8878;-33.370;-70.552;2023-06-10T04:36:18;92696.28;;;12.84;89.12
17521;BME280;8878;-33.370;-70.552;2023-06-10T04:38:48;92688.84;;;12.66;90.12
17521;BME280;8878;-33.370;-70.552;2023-06-10T04:41:19;92675.91;;;12.84;90.21
17521;BME280;8878;-33.370;-70.552;2023-06-10T04:43:51;92672.69;;;12.27;91.18
17521;BME280;8878;-33.370;-70.552;2023-06-10T04:46:20;92655.50;;;12.85;91.10
17521;BME280;8878;-33.370;-70.552;2023-06-10T04:48:50;92645.91;;;13.24;89.00
17521;BME280;8878;-33.370;-70.552;2023-06-10T04:51:21;92640.53;;;13.50;87.55
17521;BME280;8878;-33.370;-70.552;2023-06-10T04:53:50;92630.94;;;13.64;85.77
17521;BME280;8878;-33.370;-70.552;2023-06-10T04:56:20;92634.09;;;13.71;85.54
17521;BME280;8878;-33.370;-70.552;2023-06-10T04:58:51;92633.25;;;13.76;84.44
17521;BME280;8878;-33.370;-70.552;2023-06-10T05:01:20;92621.31;;;13.78;83.47
17521;BME280;8878;-33.370;-70.552;2023-06-10T05:03:50;92608.56;;;13.85;83.13
17521;BME280;8878;-33.370;-70.552;2023-06-10T05:06:19;92608.75;;;13.50;84.01
17521;BME280;8878;-33.370;-70.552;2023-06-10T05:08:48;92605.00;;;13.51;84.21
17521;BME280;8878;-33.370;-70.552;2023-06-10T05:11:18;92596.22;;;13.60;84.52
17521;BME280;8878;-33.370;-70.552;2023-06-10T05:13:47;92610.44;;;13.20;85.71
17521;BME280;8878;-33.370;-70.552;2023-06-10T05:16:19;92613.03;;;13.36;85.58
17521;BME280;8878;-33.370;-70.552;2023-06-10T05:18:48;92609.88;;;13.23;86.26
17521;BME280;8878;-33.370;-70.552;2023-06-10T05:21:18;92607.19;;;13.33;86.58
17521;BME280;8878;-33.370;-70.552;2023-06-10T05:23:48;92606.72;;;13.21;86.26
17521;BME280;8878;-33.370;-70.552;2023-06-10T05:26:17;92594.25;;;13.27;86.83
17521;BME280;8878;-33.370;-70.552;2023-06-10T05:28:47;92588.66;;;13.33;86.76
17521;BME280;8878;-33.370;-70.552;2023-06-10T05:31:18;92587.94;;;13.13;86.94
17521;BME280;8878;-33.370;-70.552;2023-06-10T05:33:48;92588.56;;;12.64;90.19
17521;BME280;8878;-33.370;-70.552;2023-06-10T05:36:17;92579.75;;;12.89;88.78
17521;BME280;8878;-33.370;-70.552;2023-06-10T05:38:47;92582.66;;;12.92;88.46
17521;BME280;8878;-33.370;-70.552;2023-06-10T05:41:16;92577.59;;;13.06;87.97
17521;BME280;8878;-33.370;-70.552;2023-06-10T05:43:46;92575.66;;;13.32;86.72
17521;BME280;8878;-33.370;-70.552;2023-06-10T05:46:17;92552.59;;;13.38;85.75
17521;BME280;8878;-33.370;-70.552;2023-06-10T05:48:46;92560.91;;;13.06;85.35
17521;BME280;8878;-33.370;-70.552;2023-06-10T05:51:16;92576.50;;;13.12;86.04
17521;BME280;8878;-33.370;-70.552;2023-06-10T05:53:45;92592.25;;;12.78;87.25
17521;BME280;8878;-33.370;-70.552;2023-06-10T05:56:15;92586.88;;;12.99;86.80
17521;BME280;8878;-33.370;-70.552;2023-06-10T05:58:44;92586.13;;;12.83;87.49
17521;BME280;8878;-33.370;-70.552;2023-06-10T06:01:13;92584.06;;;12.29;89.75
17521;BME280;8878;-33.370;-70.552;2023-06-10T06:03:44;92590.69;;;12.27;89.89
17521;BME280;8878;-33.370;-70.552;2023-06-10T06:06:14;92591.44;;;11.82;94.09
17521;BME280;8878;-33.370;-70.552;2023-06-10T06:08:43;92592.50;;;11.91;93.82
17521;BME280;8878;-33.370;-70.552;2023-06-10T06:11:13;92599.41;;;12.22;92.75
17521;BME280;8878;-33.370;-70.552;2023-06-10T06:13:42;92612.59;;;11.87;92.99
17521;BME280;8878;-33.370;-70.552;2023-06-10T06:16:14;92627.13;;;11.12;97.45
17521;BME280;8878;-33.370;-70.552;2023-06-10T06:18:45;92625.03;;;11.19;96.90
17521;BME280;8878;-33.370;-70.552;2023-06-10T06:21:14;92623.34;;;11.60;95.33
17521;BME280;8878;-33.370;-70.552;2023-06-10T06:23:44;92625.28;;;11.95;94.49
17521;BME280;8878;-33.370;-70.552;2023-06-10T06:26:13;92631.75;;;11.52;94.89
17521;BME280;8878;-33.370;-70.552;2023-06-10T06:28:43;92626.28;;;11.73;94.86
17521;BME280;8878;-33.370;-70.552;2023-06-10T06:31:12;92631.75;;;11.47;94.95
17521;BME280;8878;-33.370;-70.552;2023-06-10T06:33:42;92649.88;;;11.85;93.64
17521;BME280;8878;-33.370;-70.552;2023-06-10T06:36:13;92654.09;;;11.81;93.47
17521;BME280;8878;-33.370;-70.552;2023-06-10T06:38:42;92655.69;;;11.87;92.26
17521;BME280;8878;-33.370;-70.552;2023-06-10T06:41:11;92661.63;;;11.52;94.25
17521;BME280;8878;-33.370;-70.552;2023-06-10T06:43:41;92659.81;;;11.63;94.01
17521;BME280;8878;-33.370;-70.552;2023-06-10T06:46:11;92651.19;;;11.77;92.52
17521;BME280;8878;-33.370;-70.552;2023-06-10T06:48:41;92652.06;;;12.19;91.01
17521;BME280;8878;-33.370;-70.552;2023-06-10T06:51:12;92649.13;;;12.10;88.73
17521;BME280;8878;-33.370;-70.552;2023-06-10T06:53:41;92630.88;;;11.98;88.61
17521;BME280;8878;-33.370;-70.552;2023-06-10T06:56:11;92621.38;;;12.07;88.56
17521;BME280;8878;-33.370;-70.552;2023-06-10T06:58:41;92626.38;;;12.09;87.73
17521;BME280;8878;-33.370;-70.552;2023-06-10T07:01:10;92617.41;;;12.35;87.21
17521;BME280;8878;-33.370;-70.552;2023-06-10T07:03:39;92611.59;;;12.53;85.52
17521;BME280;8878;-33.370;-70.552;2023-06-10T07:06:09;92611.84;;;12.47;85.48
17521;BME280;8878;-33.370;-70.552;2023-06-10T07:08:40;92604.97;;;12.46;85.43
17521;BME280;8878;-33.370;-70.552;2023-06-10T07:11:09;92590.66;;;12.62;85.52
17521;BME280;8878;-33.370;-70.552;2023-06-10T07:13:39;92584.00;;;12.90;84.78
17521;BME280;8878;-33.370;-70.552;2023-06-10T07:16:08;92582.09;;;13.01;83.73
17521;BME280;8878;-33.370;-70.552;2023-06-10T07:18:38;92580.28;;;12.86;83.00
17521;BME280;8878;-33.370;-70.552;2023-06-10T07:21:08;92569.75;;;12.71;83.05
17521;BME280;8878;-33.370;-70.552;2023-06-10T07:23:39;92575.53;;;12.73;83.51
17521;BME280;8878;-33.370;-70.552;2023-06-10T07:26:10;92577.16;;;12.69;84.21
17521;BME280;8878;-33.370;-70.552;2023-06-10T07:28:40;92581.38;;;12.85;83.57
17521;BME280;8878;-33.370;-70.552;2023-06-10T07:31:09;92588.28;;;12.30;85.44
17521;BME280;8878;-33.370;-70.552;2023-06-10T07:33:39;92591.75;;;12.26;86.68
17521;BME280;8878;-33.370;-70.552;2023-06-10T07:36:10;92594.91;;;12.33;86.68
17521;BME280;8878;-33.370;-70.552;2023-06-10T07:38:41;92606.97;;;11.73;88.85
17521;BME280;8878;-33.370;-70.552;2023-06-10T07:41:11;92595.97;;;11.14;91.90
17521;BME280;8878;-33.370;-70.552;2023-06-10T07:43:41;92589.47;;;11.42;91.88
17521;BME280;8878;-33.370;-70.552;2023-06-10T07:46:10;92581.44;;;11.99;89.31
17521;BME280;8878;-33.370;-70.552;2023-06-10T07:48:40;92597.28;;;12.04;87.78
17521;BME280;8878;-33.370;-70.552;2023-06-10T07:51:09;92583.50;;;11.82;87.83
17521;BME280;8878;-33.370;-70.552;2023-06-10T07:53:40;92591.75;;;12.05;87.57
17521;BME280;8878;-33.370;-70.552;2023-06-10T07:56:10;92606.19;;;11.72;87.48
17521;BME280;8878;-33.370;-70.552;2023-06-10T07:58:39;92605.34;;;11.52;89.75
17521;BME280;8878;-33.370;-70.552;2023-06-10T08:01:09;92605.19;;;11.79;88.77
17521;BME280;8878;-33.370;-70.552;2023-06-10T08:03:38;92606.13;;;11.42;89.84
17521;BME280;8878;-33.370;-70.552;2023-06-10T08:06:07;92608.47;;;11.38;90.42
17521;BME280;8878;-33.370;-70.552;2023-06-10T08:08:38;92603.25;;;11.54;89.78
17521;BME280;8878;-33.370;-70.552;2023-06-10T08:11:12;92604.59;;;11.61;88.50
17521;BME280;8878;-33.370;-70.552;2023-06-10T08:13:43;92612.47;;;11.46;90.68
17521;BME280;8878;-33.370;-70.552;2023-06-10T08:16:12;92603.78;;;11.61;89.58
17521;BME280;8878;-33.370;-70.552;2023-06-10T08:18:42;92605.19;;;11.84;89.29
17521;BME280;8878;-33.370;-70.552;2023-06-10T08:21:11;92602.56;;;12.04;88.24
17521;BME280;8878;-33.370;-70.552;2023-06-10T08:23:40;92609.44;;;11.90;88.21
17521;BME280;8878;-33.370;-70.552;2023-06-10T08:26:12;92617.84;;;11.71;88.82
17521;BME280;8878;-33.370;-70.552;2023-06-10T08:28:42;92613.06;;;11.63;89.01
17521;BME280;8878;-33.370;-70.552;2023-06-10T08:31:11;92598.59;;;12.16;87.92
17521;BME280;8878;-33.370;-70.552;2023-06-10T08:33:41;92603.91;;;12.57;86.51
17521;BME280;8878;-33.370;-70.552;2023-06-10T08:36:11;92602.84;;;12.53;85.16
17521;BME280;8878;-33.370;-70.552;2023-06-10T08:38:41;92593.84;;;12.39;85.25
17521;BME280;8878;-33.370;-70.552;2023-06-10T08:41:14;92598.88;;;12.61;85.42
17521;BME280;8878;-33.370;-70.552;2023-06-10T08:43:52;92596.19;;;12.81;84.95
17521;BME280;8878;-33.370;-70.552;2023-06-10T08:46:24;92592.44;;;13.02;84.15
17521;BME280;8878;-33.370;-70.552;2023-06-10T08:48:55;92576.81;;;13.06;83.48
17521;BME280;8878;-33.370;-70.552;2023-06-10T08:51:30;92586.63;;;12.95;82.90
17521;BME280;8878;-33.370;-70.552;2023-06-10T08:54:02;92583.41;;;13.03;83.74
17521;BME280;8878;-33.370;-70.552;2023-06-10T08:56:37;92586.09;;;13.13;83.44
17521;BME280;8878;-33.370;-70.552;2023-06-10T08:59:08;92588.69;;;13.23;82.40
17521;BME280;8878;-33.370;-70.552;2023-06-10T09:01:38;92594.03;;;13.13;82.27
17521;BME280;8878;-33.370;-70.552;2023-06-10T09:04:08;92586.88;;;12.99;82.41
17521;BME280;8878;-33.370;-70.552;2023-06-10T09:06:38;92591.69;;;12.91;82.47
17521;BME280;8878;-33.370;-70.552;2023-06-10T09:09:07;92600.44;;;12.72;83.07
17521;BME280;8878;-33.370;-70.552;2023-06-10T09:11:41;92606.53;;;12.67;83.65
17521;BME280;8878;-33.370;-70.552;2023-06-10T09:14:11;92590.94;;;12.55;84.21
17521;BME280;8878;-33.370;-70.552;2023-06-10T09:16:41;92602.28;;;12.66;84.04
17521;BME280;8878;-33.370;-70.552;2023-06-10T09:19:12;92603.06;;;12.72;84.36
17521;BME280;8878;-33.370;-70.552;2023-06-10T09:21:43;92591.91;;;12.95;83.33
17521;BME280;8878;-33.370;-70.552;2023-06-10T09:24:12;92597.19;;;13.05;83.14
17521;BME280;8878;-33.370;-70.552;2023-06-10T09:26:44;92590.84;;;13.01;82.71
17521;BME280;8878;-33.370;-70.552;2023-06-10T09:29:13;92589.28;;;12.90;82.38
17521;BME280;8878;-33.370;-70.552;2023-06-10T09:31:44;92591.69;;;12.81;82.56
17521;BME280;8878;-33.370;-70.552;2023-06-10T09:34:15;92599.94;;;12.49;84.13
17521;BME280;8878;-33.370;-70.552;2023-06-10T09:36:46;92597.25;;;12.65;84.13
17521;BME280;8878;-33.370;-70.552;2023-06-10T09:39:17;92607.88;;;12.70;84.00
17521;BME280;8878;-33.370;-70.552;2023-06-10T09:41:48;92604.41;;;12.69;83.81
17521;BME280;8878;-33.370;-70.552;2023-06-10T09:44:19;92602.78;;;12.93;83.65
17521;BME280;8878;-33.370;-70.552;2023-06-10T09:46:49;92607.84;;;12.85;83.78
17521;BME280;8878;-33.370;-70.552;2023-06-10T09:49:19;92594.81;;;12.93;83.10
17521;BME280;8878;-33.370;-70.552;2023-06-10T09:51:52;92599.88;;;13.00;82.91
17521;BME280;8878;-33.370;-70.552;2023-06-10T09:54:21;92603.56;;;12.94;82.97
17521;BME280;8878;-33.370;-70.552;2023-06-10T09:56:53;92604.13;;;12.91;83.16
17521;BME280;8878;-33.370;-70.552;2023-06-10T09:59:30;92607.53;;;13.02;82.62
17521;BME280;8878;-33.370;-70.552;2023-06-10T10:02:01;92601.16;;;13.18;82.70
17521;BME280;8878;-33.370;-70.552;2023-06-10T10:04:31;92601.34;;;13.37;82.41
17521;BME280;8878;-33.370;-70.552;2023-06-10T10:07:04;92601.41;;;13.26;82.00
17521;BME280;8878;-33.370;-70.552;2023-06-10T10:09:35;92613.59;;;13.22;81.84
17521;BME280;8878;-33.370;-70.552;2023-06-10T10:12:10;92613.06;;;13.15;81.42
17521;BME280;8878;-33.370;-70.552;2023-06-10T10:14:42;92613.09;;;12.95;82.64
17521;BME280;8878;-33.370;-70.552;2023-06-10T10:17:16;92606.97;;;13.10;82.30
17521;BME280;8878;-33.370;-70.552;2023-06-10T10:19:50;92605.94;;;13.16;81.89
17521;BME280;8878;-33.370;-70.552;2023-06-10T10:22:26;92601.44;;;13.21;81.75
17521;BME280;8878;-33.370;-70.552;2023-06-10T10:24:58;92605.69;;;12.97;81.74
17521;BME280;8878;-33.370;-70.552;2023-06-10T10:27:35;92611.53;;;12.99;81.18
17521;BME280;8878;-33.370;-70.552;2023-06-10T10:30:07;92596.13;;;13.01;81.73
17521;BME280;8878;-33.370;-70.552;2023-06-10T10:32:43;92598.31;;;12.84;81.52
17521;BME280;8878;-33.370;-70.552;2023-06-10T10:35:17;92598.84;;;12.66;82.60
17521;BME280;8878;-33.370;-70.552;2023-06-10T10:37:48;92602.28;;;12.76;82.09
17521;BME280;8878;-33.370;-70.552;2023-06-10T10:40:19;92595.88;;;13.03;81.87
17521;BME280;8878;-33.370;-70.552;2023-06-10T10:42:51;92595.03;;;13.22;80.87
17521;BME280;8878;-33.370;-70.552;2023-06-10T10:45:22;92605.19;;;12.85;80.45
17521;BME280;8878;-33.370;-70.552;2023-06-10T10:47:53;92594.66;;;12.39;82.50
17521;BME280;8878;-33.370;-70.552;2023-06-10T10:50:25;92589.34;;;11.99;85.55
17521;BME280;8878;-33.370;-70.552;2023-06-10T10:53:01;92600.47;;;12.21;84.90
17521;BME280;8878;-33.370;-70.552;2023-06-10T10:55:30;92603.41;;;12.35;84.48
17521;BME280;8878;-33.370;-70.552;2023-06-10T10:58:04;92603.38;;;12.40;83.84
17521;BME280;8878;-33.370;-70.552;2023-06-10T11:00:35;92609.16;;;11.81;85.04
17521;BME280;8878;-33.370;-70.552;2023-06-10T11:03:07;92619.97;;;11.80;84.97
17521;BME280;8878;-33.370;-70.552;2023-06-10T11:05:38;92616.09;;;11.30;86.71
17521;BME280;8878;-33.370;-70.552;2023-06-10T11:08:09;92615.59;;;11.38;85.99
17521;BME280;8878;-33.370;-70.552;2023-06-10T11:10:38;92613.88;;;11.74;85.24
17521;BME280;8878;-33.370;-70.552;2023-06-10T11:13:14;92611.00;;;11.81;84.50
17521;BME280;8878;-33.370;-70.552;2023-06-10T11:15:44;92601.53;;;12.10;83.56
17521;BME280;8878;-33.370;-70.552;2023-06-10T11:18:20;92599.41;;;12.12;82.88
17521;BME280;8878;-33.370;-70.552;2023-06-10T11:20:54;92587.75;;;12.38;82.75
17521;BME280;8878;-33.370;-70.552;2023-06-10T11:23:40;92593.28;;;12.67;81.40
17521;BME280;8878;-33.370;-70.552;2023-06-10T11:26:21;92584.56;;;12.67;81.11
17521;BME280;8878;-33.370;-70.552;2023-06-10T11:29:07;92579.56;;;12.50;80.71
17521;BME280;8878;-33.370;-70.552;2023-06-10T11:31:42;92579.03;;;12.63;80.79
17521;BME280;8878;-33.370;-70.552;2023-06-10T11:34:12;92583.53;;;12.02;82.56
17521;BME280;8878;-33.370;-70.552;2023-06-10T11:36:42;92587.75;;;11.88;83.28
17521;BME280;8878;-33.370;-70.552;2023-06-10T11:39:12;92584.59;;;12.11;83.37
17521;BME280;8878;-33.370;-70.552;2023-06-10T11:41:46;92605.19;;;11.79;84.68
17521;BME280;8878;-33.370;-70.552;2023-06-10T11:44:17;92603.38;;;11.99;84.52
17521;BME280;8878;-33.370;-70.552;2023-06-10T11:46:48;92603.91;;;12.16;83.63
17521;BME280;8878;-33.370;-70.552;2023-06-10T11:49:21;92607.22;;;11.61;84.92
17521;BME280;8878;-33.370;-70.552;2023-06-10T11:51:51;92600.03;;;11.47;84.59
17521;BME280;8878;-33.370;-70.552;2023-06-10T11:54:20;92608.56;;;10.96;86.55
17521;BME280;8878;-33.370;-70.552;2023-06-10T11:56:50;92607.50;;;10.97;88.11
17521;BME280;8878;-33.370;-70.552;2023-06-10T11:59:30;92610.31;;;11.33;87.09
17521;BME280;8878;-33.370;-70.552;2023-06-10T12:02:00;92614.06;;;10.90;87.56
17521;BME280;8878;-33.370;-70.552;2023-06-10T12:04:30;92624.19;;;10.61;88.29
17521;BME280;8878;-33.370;-70.552;2023-06-10T12:06:59;92615.50;;;11.08;87.20
17521;BME280;8878;-33.370;-70.552;2023-06-10T12:09:29;92605.63;;;11.50;86.06
17521;BME280;8878;-33.370;-70.552;2023-06-10T12:12:01;92602.94;;;11.35;85.68
17521;BME280;8878;-33.370;-70.552;2023-06-10T12:15:05;92609.25;;;11.34;84.93
17521;BME280;8878;-33.370;-70.552;2023-06-10T12:17:37;92600.78;;;11.37;84.28
17521;BME280;8878;-33.370;-70.552;2023-06-10T12:20:08;92598.63;;;11.14;85.50
17521;BME280;8878;-33.370;-70.552;2023-06-10T12:22:39;92600.03;;;11.47;84.38
17521;BME280;8878;-33.370;-70.552;2023-06-10T12:25:09;92609.31;;;11.54;83.99
17521;BME280;8878;-33.370;-70.552;2023-06-10T12:27:39;92611.34;;;11.27;85.02
17521;BME280;8878;-33.370;-70.552;2023-06-10T12:30:19;92614.34;;;11.51;84.88
17521;BME280;8878;-33.370;-70.552;2023-06-10T12:32:48;92618.34;;;11.68;83.53
17521;BME280;8878;-33.370;-70.552;2023-06-10T12:35:20;92623.63;;;11.68;83.54
17521;BME280;8878;-33.370;-70.552;2023-06-10T12:37:58;92620.47;;;11.71;83.42
17521;BME280;8878;-33.370;-70.552;2023-06-10T12:40:30;92624.13;;;11.60;84.07
17521;BME280;8878;-33.370;-70.552;2023-06-10T12:43:00;92626.28;;;11.01;87.21
17521;BME280;8878;-33.370;-70.552;2023-06-10T12:45:32;92628.28;;;11.36;86.14
17521;BME280;8878;-33.370;-70.552;2023-06-10T12:48:09;92632.94;;;11.14;85.38
17521;BME280;8878;-33.370;-70.552;2023-06-10T12:50:40;92646.31;;;10.97;87.60
17521;BME280;8878;-33.370;-70.552;2023-06-10T12:53:10;92634.56;;;11.25;87.55
17521;BME280;8878;-33.370;-70.552;2023-06-10T12:55:40;92633.16;;;11.69;86.01
17521;BME280;8878;-33.370;-70.552;2023-06-10T12:58:12;92632.31;;;11.54;84.93